Time;durP1;ratioP1;P1;durP2;ratioP2;P2;SDS_P1;SDS_P2;PMS_P1;PMS_P2;Temp;Humidity;BMP_temperature;BMP_pressure;BME280_temperature;BME280_humidity;BME280_pressure;Samples;Min_cycle;Max_cycle;Signal;HPM_P1;HPM_P2
2022/01/23 00:02:03;;;;;;;8.00;4.10;;;;;;;-4.14;72.21;94993.00;5073253;28;20673;-75
2022/01/23 00:04:30;;;;;;;7.88;4.10;;;;;;;-4.05;71.49;95004.88;5072934;28;20225;-77
2022/01/23 00:07:02;;;;;;;4.18;1.85;;;;;;;-4.08;72.15;95002.66;5072959;28;20214;-76
2022/01/23 00:09:29;;;;;;;3.58;1.85;;;;;;;-4.08;71.03;95010.59;5073469;28;20223;-76
2022/01/23 00:11:57;;;;;;;1.88;1.42;;;;;;;-4.07;70.62;95012.22;5073467;28;20210;-75
2022/01/23 00:17:21;;;;;;;2.17;1.50;;;;;;;-4.25;72.29;95007.03;5061298;28;20672;-75
2022/01/23 00:19:50;;;;;;;2.42;1.50;;;;;;;-4.31;72.21;95014.81;5072934;28;20602;-75
2022/01/23 00:22:19;;;;;;;2.65;1.60;;;;;;;-4.35;72.07;95016.28;5073663;28;20277;-76
2022/01/23 00:33:05;;;;;;;3.13;1.27;;;;;;;-4.25;72.77;95020.25;5075443;28;20213;-76
2022/01/23 00:35:34;;;;;;;2.80;0.98;;;;;;;-4.14;72.55;95019.47;5080819;28;20234;-77
2022/01/23 00:38:05;;;;;;;4.30;2.35;;;;;;;-4.28;72.96;95018.03;5072151;28;20223;-78
2022/01/23 00:40:33;;;;;;;1.80;1.20;;;;;;;-4.33;72.95;95016.88;5072529;28;20198;-76
2022/01/23 00:43:01;;;;;;;2.72;1.60;;;;;;;-4.22;72.83;95023.22;5059444;28;20276;-77
2022/01/23 00:45:33;;;;;;;9.20;1.33;;;;;;;-4.19;73.04;95012.19;5072646;28;20555;-76
2022/01/23 00:48:04;;;;;;;2.92;1.38;;;;;;;-4.28;72.46;95008.28;5072978;28;20195;-76
2022/01/23 00:50:33;;;;;;;1.08;0.88;;;;;;;-4.15;73.16;95023.94;5072505;28;20226;-76
2022/01/23 00:53:02;;;;;;;6.72;1.42;;;;;;;-4.13;73.53;95021.06;5072764;28;20231;-78
2022/01/23 00:55:29;;;;;;;2.97;1.95;;;;;;;-4.30;74.50;95024.34;5075217;28;20222;-78
2022/01/23 00:57:56;;;;;;;1.92;1.13;;;;;;;-4.24;74.52;95020.03;5082937;28;20195;-76
2022/01/23 01:00:24;;;;;;;3.15;2.13;;;;;;;-4.25;74.78;95017.59;5072171;28;20199;-77
2022/01/23 01:02:51;;;;;;;3.00;1.45;;;;;;;-4.26;74.40;95021.28;5072200;28;20202;-77
2022/01/23 01:05:18;;;;;;;4.72;1.35;;;;;;;-4.30;75.04;95016.44;5071582;28;20226;-75
2022/01/23 01:07:45;;;;;;;4.03;1.73;;;;;;;-4.21;75.72;95010.81;5071091;28;20223;-78
2022/01/23 01:10:20;;;;;;;2.08;1.42;;;;;;;-4.37;75.59;95015.69;5071600;28;20202;-77
2022/01/23 01:12:50;;;;;;;2.25;1.48;;;;;;;-4.40;75.02;95020.66;5072081;28;20195;-76
2022/01/23 01:15:36;;;;;;;2.72;1.73;;;;;;;-4.36;74.99;95021.78;5072133;28;20206;-75
2022/01/23 01:31:51;;;;;;;3.70;1.50;;;;;;;-4.36;75.51;95027.09;5071926;28;20256;-76
2022/01/23 01:34:23;;;;;;;3.40;2.05;;;;;;;-4.34;75.11;95031.13;5071080;28;20198;-76
2022/01/23 01:36:52;;;;;;;3.03;1.70;;;;;;;-4.32;75.87;95029.06;5071393;28;20245;-77
2022/01/23 01:39:22;;;;;;;2.25;1.73;;;;;;;-4.20;75.36;95023.00;5070203;28;20203;-77
2022/01/23 01:41:51;;;;;;;2.45;2.20;;;;;;;-4.42;75.66;95023.53;5071443;28;20223;-76
2022/01/23 01:44:19;;;;;;;2.85;1.55;;;;;;;-4.39;75.35;95023.06;5071067;28;20669;-78
2022/01/23 01:46:46;;;;;;;2.33;1.67;;;;;;;-4.46;76.23;95026.81;5070647;28;20230;-77
2022/01/23 01:49:14;;;;;;;6.28;2.50;;;;;;;-4.58;76.17;95024.16;5071038;28;20210;-77
2022/01/23 01:51:43;;;;;;;2.47;2.03;;;;;;;-4.52;76.45;95028.53;5071597;28;20199;-75
2022/01/23 01:54:13;;;;;;;2.40;1.92;;;;;;;-4.54;75.90;95014.75;5058328;28;20214;-78
2022/01/23 01:56:50;;;;;;;2.83;1.95;;;;;;;-4.54;76.50;95022.66;5071438;28;20203;-76
2022/01/23 01:59:44;;;;;;;3.35;1.70;;;;;;;-4.48;75.49;95028.88;5071252;28;20653;-77
2022/01/23 02:10:24;;;;;;;2.40;1.58;;;;;;;-4.45;75.25;95045.09;5070153;28;20197;-76
2022/01/23 02:13:07;;;;;;;2.03;1.27;;;;;;;-4.46;76.28;95038.22;5071139;28;20202;-77
2022/01/23 02:16:07;;;;;;;4.55;3.13;;;;;;;-4.50;76.08;95034.38;5059552;28;20205;-76
2022/01/23 02:24:47;;;;;;;4.55;2.20;;;;;;;-4.63;75.17;95024.00;5058545;28;20285;-76
2022/01/23 02:52:03;;;;;;;8.00;4.72;;;;;;;-4.96;76.41;95055.31;5080712;28;20226;-77
2022/01/23 02:54:46;;;;;;;9.95;5.13;;;;;;;-4.91;75.73;95060.72;5071219;28;20191;-78
2022/01/23 02:57:20;;;;;;;9.90;1.50;;;;;;;-5.01;75.07;95059.41;5085654;28;20286;-77
2022/01/23 02:59:49;;;;;;;1.90;1.02;;;;;;;-4.89;76.05;95066.59;5069261;28;20281;-77
2022/01/23 03:02:28;;;;;;;3.88;1.63;;;;;;;-4.95;75.28;95065.66;5074482;28;20202;-77
2022/01/23 03:05:00;;;;;;;4.40;2.53;;;;;;;-4.88;74.98;95060.28;5074445;28;20238;-77
2022/01/23 03:07:53;;;;;;;2.03;1.42;;;;;;;-5.10;74.80;95058.09;5074394;28;20263;-77
2022/01/23 03:10:24;;;;;;;3.25;2.03;;;;;;;-5.08;74.89;95056.06;5074199;28;20661;-77
2022/01/23 03:27:00;;;;;;;4.07;2.20;;;;;;;-5.03;75.47;95064.09;5060018;28;20721;-77
2022/01/23 03:29:38;;;;;;;3.13;1.70;;;;;;;-4.97;74.40;95067.72;5073830;28;20694;-78
2022/01/23 03:32:19;;;;;;;2.15;1.67;;;;;;;-5.02;74.38;95076.28;5073294;28;20696;-78
2022/01/23 03:34:46;;;;;;;8.32;2.35;;;;;;;-5.03;74.94;95077.31;5074135;28;20218;-77
2022/01/23 03:37:13;;;;;;;5.05;2.22;;;;;;;-5.04;73.95;95083.63;5074062;28;20222;-78
2022/01/23 03:39:40;;;;;;;2.78;2.00;;;;;;;-5.04;74.73;95082.81;5074097;28;20214;-77
2022/01/23 03:42:09;;;;;;;3.45;2.03;;;;;;;-4.98;74.69;95075.84;5073386;28;20242;-78
2022/01/23 03:44:40;;;;;;;3.40;2.60;;;;;;;-4.93;74.34;95095.31;5073028;28;20207;-77
2022/01/23 03:47:21;;;;;;;2.92;1.90;;;;;;;-4.87;74.13;95089.13;5073456;28;20219;-78
2022/01/23 03:49:48;;;;;;;3.92;2.10;;;;;;;-4.90;73.77;95094.03;5061485;28;20241;-78
2022/01/23 03:52:16;;;;;;;3.83;2.45;;;;;;;-4.81;73.59;95088.25;5073719;28;20223;-77
2022/01/23 03:54:44;;;;;;;3.95;1.90;;;;;;;-4.73;73.39;95085.31;5073631;28;20298;-78
2022/01/23 03:57:13;;;;;;;2.92;2.00;;;;;;;-4.75;73.51;95095.28;5073711;28;20207;-78
2022/01/23 03:59:39;;;;;;;7.32;2.45;;;;;;;-4.53;73.20;95100.94;5073709;28;20206;-78
2022/01/23 04:02:07;;;;;;;2.30;1.33;;;;;;;-4.46;73.42;95101.66;5073172;28;20219;-78
2022/01/23 04:04:39;;;;;;;1.75;1.25;;;;;;;-4.49;72.54;95110.00;5073301;28;20713;-78
2022/01/23 04:07:08;;;;;;;2.60;1.75;;;;;;;-4.56;72.63;95101.38;5071889;28;20314;-78
2022/01/23 04:09:36;;;;;;;3.10;1.83;;;;;;;-4.43;72.76;95109.13;5071801;28;20998;-77
2022/01/23 04:12:05;;;;;;;2.88;1.80;;;;;;;-4.41;72.40;95122.94;5071974;28;20206;-78
2022/01/23 04:14:41;;;;;;;1.55;1.33;;;;;;;-4.35;71.99;95113.31;5071645;28;20199;-78
2022/01/23 04:20:19;;;;;;;5.72;3.03;;;;;;;-4.54;72.10;95117.81;5048662;28;20219;-78
2022/01/23 04:33:51;;;;;;;4.75;2.40;;;;;;;-4.42;71.98;95113.41;5069520;28;20194;-77
2022/01/23 05:01:21;;;;;;;3.17;1.70;;;;;;;-4.58;70.72;95105.25;5072296;28;20225;-78
2022/01/23 05:06:42;;;;;;;1.67;1.52;;;;;;;-4.69;70.53;95128.75;5072176;28;20312;-78
2022/01/23 05:09:09;;;;;;;1.77;1.45;;;;;;;-4.78;71.06;95118.69;5072481;28;20191;-77
2022/01/23 05:11:39;;;;;;;2.47;1.35;;;;;;;-4.81;71.51;95119.16;5072123;28;20202;-77
2022/01/23 05:14:05;;;;;;;3.13;1.75;;;;;;;-4.77;71.59;95130.88;5071564;28;20920;-77
2022/01/23 05:16:33;;;;;;;1.25;1.15;;;;;;;-4.84;70.89;95135.44;5071639;28;20207;-77
2022/01/23 05:19:03;;;;;;;3.65;2.03;;;;;;;-4.81;71.00;95124.44;5070352;28;20238;-77
2022/01/23 05:21:52;;;;;;;5.45;2.47;;;;;;;-4.74;71.29;95138.38;5071763;28;20437;-78
2022/01/23 05:24:23;;;;;;;3.13;2.10;;;;;;;-4.71;70.15;95140.56;5071217;28;20788;-77
2022/01/23 05:26:50;;;;;;;3.25;1.38;;;;;;;-4.71;70.42;95143.22;5071528;28;20589;-76
2022/01/23 05:29:17;;;;;;;2.47;1.83;;;;;;;-4.66;70.01;95153.94;5072212;28;20241;-79
2022/01/23 05:31:45;;;;;;;2.40;1.63;;;;;;;-4.60;70.71;95147.75;5074613;28;20202;-78
2022/01/23 05:34:13;;;;;;;3.78;1.90;;;;;;;-4.64;70.86;95151.88;5072194;28;20749;-78
2022/01/23 05:36:40;;;;;;;4.90;2.05;;;;;;;-4.60;70.13;95142.47;5071100;28;20199;-79
2022/01/23 05:39:10;;;;;;;4.60;1.95;;;;;;;-4.47;70.50;95152.91;5071188;28;20569;-78
2022/01/23 05:41:37;;;;;;;5.38;1.67;;;;;;;-4.57;69.27;95151.81;5073424;28;20195;-83
2022/01/23 05:44:04;;;;;;;3.92;1.70;;;;;;;-4.59;69.92;95144.09;5076054;28;20206;-79
2022/01/23 05:46:31;;;;;;;3.72;1.75;;;;;;;-4.57;70.13;95146.53;5073795;28;20226;-80
2022/01/23 05:48:58;;;;;;;3.65;1.52;;;;;;;-4.59;69.93;95141.44;5070995;28;20207;-81
2022/01/23 05:51:26;;;;;;;4.88;2.08;;;;;;;-4.63;69.93;95137.63;5070679;28;20234;-78
2022/01/23 05:53:53;;;;;;;2.95;1.98;;;;;;;-4.92;69.88;95138.38;5070840;28;20199;-81
2022/01/23 05:56:20;;;;;;;3.97;1.92;;;;;;;-4.96;70.70;95139.84;5071487;28;20295;-79
2022/01/23 05:58:47;;;;;;;1.83;1.20;;;;;;;-4.81;70.57;95142.94;5071998;28;20202;-81
2022/01/23 06:01:13;;;;;;;3.00;1.55;;;;;;;-4.88;70.57;95144.81;5071830;28;20709;-81
2022/01/23 06:03:40;;;;;;;4.53;2.08;;;;;;;-5.00;70.51;95147.38;5071520;28;20199;-82
2022/01/23 06:06:07;;;;;;;3.22;1.10;;;;;;;-4.99;70.81;95148.19;5070201;28;20215;-81
2022/01/23 06:08:35;;;;;;;1.77;1.30;;;;;;;-4.89;70.39;95151.13;5071260;28;20199;-80
2022/01/23 06:11:02;;;;;;;2.50;1.58;;;;;;;-4.94;70.65;95153.63;5069718;28;20196;-80
2022/01/23 06:13:30;;;;;;;3.25;1.63;;;;;;;-4.91;70.69;95161.09;5068904;28;20209;-80
2022/01/23 06:15:57;;;;;;;1.58;1.17;;;;;;;-4.89;70.48;95159.84;5069509;28;20206;-76
2022/01/23 06:18:23;;;;;;;4.93;1.85;;;;;;;-4.73;70.07;95169.06;5070011;28;20247;-80
2022/01/23 06:20:50;;;;;;;2.70;1.63;;;;;;;-4.39;69.07;95165.84;5070424;28;20673;-78
2022/01/23 06:23:17;;;;;;;5.15;1.75;;;;;;;-4.08;67.88;95169.31;5071186;28;20685;-74
2022/01/23 06:25:47;;;;;;;1.63;1.30;;;;;;;-3.81;66.50;95167.91;5070984;28;20245;-76
2022/01/23 06:28:21;;;;;;;3.65;2.22;;;;;;;-3.70;66.67;95159.22;5070785;28;20227;-77
2022/01/23 06:30:48;;;;;;;5.20;2.15;;;;;;;-3.92;67.54;95179.28;5070326;28;20195;-78
2022/01/23 06:33:15;;;;;;;3.50;1.98;;;;;;;-3.87;67.08;95168.84;5070678;28;20231;-78
2022/01/23 06:35:42;;;;;;;3.03;2.03;;;;;;;-3.62;66.03;95160.75;5070473;28;20295;-79
2022/01/23 06:38:09;;;;;;;4.18;2.50;;;;;;;-3.18;63.84;95167.41;5071110;28;20222;-78
2022/01/23 06:40:36;;;;;;;3.00;2.05;;;;;;;-3.09;64.97;95165.19;5071552;28;20256;-76
2022/01/23 06:43:04;;;;;;;3.75;1.88;;;;;;;-3.10;63.81;95164.41;5082764;28;20214;-75
2022/01/23 06:45:31;;;;;;;2.83;2.25;;;;;;;-3.13;64.15;95162.19;5069777;28;20199;-77
2022/01/23 06:47:57;;;;;;;4.32;2.13;;;;;;;-3.22;64.91;95160.94;5070152;28;20231;-79
2022/01/23 06:50:24;;;;;;;5.85;2.53;;;;;;;-2.84;63.83;95170.28;5070460;28;20230;-78
2022/01/23 06:52:51;;;;;;;3.90;2.30;;;;;;;-2.93;62.61;95154.72;5070791;28;20680;-77
2022/01/23 06:55:18;;;;;;;5.78;2.30;;;;;;;-2.88;63.24;95154.06;5070017;28;20248;-76
2022/01/23 06:57:45;;;;;;;4.78;2.17;;;;;;;-3.47;64.85;95158.47;5070528;28;20207;-76
2022/01/23 07:00:14;;;;;;;3.30;1.83;;;;;;;-3.67;64.91;95164.06;5057106;28;20234;-78
2022/01/23 07:02:41;;;;;;;3.42;2.03;;;;;;;-3.89;66.93;95160.31;5070518;28;20226;-79
2022/01/23 07:05:09;;;;;;;4.50;2.28;;;;;;;-4.07;67.22;95162.97;5070459;28;20235;-79
2022/01/23 07:07:35;;;;;;;2.35;1.52;;;;;;;-4.13;67.35;95163.91;5070380;28;20593;-80
2022/01/23 07:10:03;;;;;;;3.85;2.72;;;;;;;-4.11;67.36;95159.19;5070517;28;20206;-77
2022/01/23 07:12:30;;;;;;;3.17;2.03;;;;;;;-4.16;67.69;95159.03;5070778;28;20210;-79
2022/01/23 07:14:58;;;;;;;4.30;2.42;;;;;;;-4.13;67.63;95158.59;5070343;28;20302;-77
2022/01/23 07:17:26;;;;;;;3.17;2.00;;;;;;;-4.19;67.25;95167.41;5069966;28;20251;-78
2022/01/23 07:19:53;;;;;;;6.07;2.35;;;;;;;-4.18;67.75;95169.84;5069996;28;20195;-78
2022/01/23 07:22:19;;;;;;;8.18;2.38;;;;;;;-3.96;67.88;95175.44;5069421;28;20226;-78
2022/01/23 07:24:46;;;;;;;4.55;2.83;;;;;;;-3.79;67.65;95184.38;5069955;28;20720;-78
2022/01/23 07:27:18;;;;;;;3.83;2.45;;;;;;;-3.41;66.06;95167.34;5069927;28;20719;-77
2022/01/23 07:29:46;;;;;;;5.50;2.70;;;;;;;-3.29;66.13;95170.84;5070124;28;20195;-77
2022/01/23 07:32:13;;;;;;;2.47;1.90;;;;;;;-3.02;66.06;95172.03;5070248;28;20227;-78
2022/01/23 07:34:41;;;;;;;3.90;2.45;;;;;;;-3.11;65.86;95177.88;5069659;28;20239;-77
2022/01/23 07:37:10;;;;;;;5.30;2.13;;;;;;;-3.19;65.87;95170.28;5070326;28;20504;-77
2022/01/23 07:39:36;;;;;;;7.47;3.38;;;;;;;-2.83;66.00;95174.53;5069922;28;20250;-78
2022/01/23 07:42:04;;;;;;;4.22;3.08;;;;;;;-2.86;64.52;95168.66;5070302;28;20218;-78
2022/01/23 07:44:31;;;;;;;3.00;2.17;;;;;;;-2.78;64.67;95161.41;5073202;28;20206;-78
2022/01/23 07:46:58;;;;;;;6.53;3.50;;;;;;;-2.59;64.31;95157.56;5073337;28;20704;-78
2022/01/23 07:49:25;;;;;;;4.82;2.42;;;;;;;-2.52;64.64;95168.88;5072879;28;20295;-78
2022/01/23 07:51:53;;;;;;;9.20;2.78;;;;;;;-2.74;63.56;95154.63;5072930;28;20218;-80
2022/01/23 07:54:20;;;;;;;4.75;2.03;;;;;;;-2.70;64.34;95163.69;5072677;28;20199;-80
2022/01/23 07:56:47;;;;;;;4.30;2.03;;;;;;;-2.52;63.84;95167.03;5073202;28;20294;-79
2022/01/23 07:59:14;;;;;;;5.50;3.30;;;;;;;-2.80;63.77;95160.84;5072644;28;20384;-78
2022/01/23 08:01:41;;;;;;;5.90;3.47;;;;;;;-2.55;65.08;95166.69;5072862;28;20203;-79
2022/01/23 08:04:08;;;;;;;4.50;2.20;;;;;;;-2.66;63.50;95160.38;5073154;28;20215;-82
2022/01/23 08:06:40;;;;;;;4.28;2.35;;;;;;;-2.66;63.59;95173.63;5073018;28;20218;-83
2022/01/23 08:09:10;;;;;;;5.60;3.25;;;;;;;-2.80;65.49;95169.59;5073225;28;20657;-79
2022/01/23 08:11:37;;;;;;;3.55;2.15;;;;;;;-2.75;64.48;95171.56;5072619;28;21411;-80
2022/01/23 08:14:04;;;;;;;6.90;3.30;;;;;;;-2.79;63.37;95181.00;5072058;28;20203;-79
2022/01/23 08:16:30;;;;;;;3.90;1.77;;;;;;;-2.66;64.71;95175.47;5072648;28;20634;-81
2022/01/23 08:18:57;;;;;;;4.18;2.58;;;;;;;-2.80;64.50;95179.38;5072471;28;20235;-83
2022/01/23 08:21:24;;;;;;;5.45;3.17;;;;;;;-2.72;63.79;95171.06;5073268;28;20593;-79
2022/01/23 08:23:54;;;;;;;4.35;2.15;;;;;;;-2.72;63.38;95177.19;5081585;28;20773;-79
2022/01/23 08:26:23;;;;;;;3.95;2.38;;;;;;;-2.86;63.81;95175.81;5075169;28;20233;-83
2022/01/23 08:28:50;;;;;;;3.97;2.42;;;;;;;-2.75;63.23;95168.91;5072370;28;20234;-82
2022/01/23 08:31:17;;;;;;;4.72;2.25;;;;;;;-2.85;64.50;95172.13;5069204;28;20214;-80
2022/01/23 08:33:44;;;;;;;3.08;1.73;;;;;;;-2.63;64.36;95175.00;5071755;28;20658;-81
2022/01/23 08:36:11;;;;;;;4.63;2.60;;;;;;;-2.56;64.03;95170.38;5074949;28;20218;-79
2022/01/23 08:38:37;;;;;;;4.38;2.72;;;;;;;-2.54;62.88;95173.59;5092682;28;20209;-77
2022/01/23 08:43:51;;;;;;;3.55;2.63;;;;;;;-2.90;63.87;95169.38;5072458;28;20202;-81
2022/01/23 08:46:18;;;;;;;3.03;2.17;;;;;;;-2.76;63.97;95169.94;5079759;28;20226;-80
2022/01/23 08:48:45;;;;;;;7.30;3.30;;;;;;;-2.53;62.94;95159.31;5077757;28;20234;-84
2022/01/23 08:51:13;;;;;;;7.10;3.30;;;;;;;-2.65;62.65;95164.63;5079542;28;20211;-81
2022/01/23 08:53:40;;;;;;;7.40;3.92;;;;;;;-2.37;62.66;95161.25;5090724;28;20206;-83
2022/01/23 08:56:07;;;;;;;3.03;2.15;;;;;;;-2.61;61.57;95151.72;5071175;28;20215;-79
2022/01/23 08:58:34;;;;;;;3.35;2.30;;;;;;;-2.56;62.52;95170.38;5072724;28;20230;-84
2022/01/23 09:01:03;;;;;;;5.95;2.20;;;;;;;-2.74;62.92;95162.56;5073135;28;20223;-81
2022/01/23 09:03:30;;;;;;;6.53;2.72;;;;;;;-2.48;61.99;95166.59;5071792;28;20226;-78
2022/01/23 09:05:56;;;;;;;4.97;2.63;;;;;;;-2.55;62.89;95162.19;5071909;28;20210;-82
2022/01/23 09:08:24;;;;;;;2.70;1.90;;;;;;;-2.42;61.38;95161.13;5071502;28;20239;-77
2022/01/23 09:10:56;;;;;;;6.35;3.22;;;;;;;-2.10;61.38;95169.50;5071637;28;20607;-77
2022/01/23 09:13:39;;;;;;;7.05;2.67;;;;;;;-2.16;60.51;95168.56;5071638;28;20651;-75
2022/01/23 09:16:08;;;;;;;3.38;2.00;;;;;;;-2.49;61.24;95176.38;5071824;28;20194;-75
2022/01/23 09:18:35;;;;;;;4.05;1.92;;;;;;;-2.59;61.95;95176.13;5057754;28;20234;-77
2022/01/23 09:21:03;;;;;;;5.90;2.88;;;;;;;-2.53;61.33;95180.53;5070638;28;20230;-77
2022/01/23 09:23:31;;;;;;;4.03;2.47;;;;;;;-2.73;63.04;95169.50;5071422;28;20198;-76
2022/01/23 09:26:00;;;;;;;4.63;2.60;;;;;;;-2.75;63.50;95168.91;5084110;28;20672;-74
2022/01/23 09:28:32;;;;;;;2.35;1.80;;;;;;;-2.48;62.18;95167.38;5071000;28;20234;-77
2022/01/23 09:30:59;;;;;;;4.50;2.55;;;;;;;-2.74;62.97;95162.56;5071096;28;20649;-76
2022/01/23 09:33:28;;;;;;;5.10;2.80;;;;;;;-2.77;62.18;95157.72;5071047;28;20326;-74
2022/01/23 09:35:55;;;;;;;6.13;2.92;;;;;;;-2.49;63.20;95149.88;5070954;28;20199;-77
2022/01/23 09:38:22;;;;;;;4.25;2.85;;;;;;;-2.65;62.46;95161.19;5071721;28;20207;-78
2022/01/23 09:40:54;;;;;;;3.47;1.67;;;;;;;-2.41;62.20;95154.78;5073878;28;20195;-78
2022/01/23 09:43:23;;;;;;;6.72;2.85;;;;;;;-2.66;62.59;95151.59;5091884;28;20227;-72
2022/01/23 09:45:53;;;;;;;4.35;2.75;;;;;;;-2.52;62.99;95156.44;5087929;28;20203;-76
2022/01/23 09:48:21;;;;;;;8.57;3.15;;;;;;;-2.64;62.62;95144.22;5071388;28;20234;-75
2022/01/23 09:50:51;;;;;;;4.65;2.40;;;;;;;-2.24;61.81;95147.72;5071173;28;20203;-76
2022/01/23 09:53:22;;;;;;;4.05;2.10;;;;;;;-1.98;61.34;95134.94;5070903;28;20301;-75
2022/01/23 09:55:53;;;;;;;7.13;3.00;;;;;;;-2.00;60.76;95135.19;5076765;28;20239;-77
2022/01/23 09:58:20;;;;;;;3.00;1.73;;;;;;;-2.13;60.76;95137.31;5089659;28;20234;-79
2022/01/23 10:00:47;;;;;;;3.45;1.90;;;;;;;-2.21;61.33;95136.66;5058636;28;20214;-78
2022/01/23 10:03:19;;;;;;;5.32;2.40;;;;;;;-2.38;60.82;95140.25;5070706;28;20761;-76
2022/01/23 10:05:48;;;;;;;4.22;2.78;;;;;;;-2.50;61.96;95132.34;5070642;28;20198;-78
2022/01/23 10:08:16;;;;;;;5.70;3.10;;;;;;;-2.28;62.43;95135.16;5070846;28;20238;-78
2022/01/23 10:10:50;;;;;;;6.10;2.22;;;;;;;-2.47;60.69;95137.19;5071204;28;20219;-78
2022/01/23 10:13:17;;;;;;;3.17;1.92;;;;;;;-2.13;61.80;95121.38;5070699;28;20676;-77
2022/01/23 10:15:44;;;;;;;5.03;2.33;;;;;;;-1.97;60.76;95120.63;5070444;28;20621;-75
2022/01/23 10:18:11;;;;;;;5.15;2.30;;;;;;;-1.89;60.32;95120.25;5070218;28;20245;-76
2022/01/23 10:20:38;;;;;;;3.47;2.15;;;;;;;-2.13;59.95;95116.06;5070881;28;20222;-75
2022/01/23 10:23:05;;;;;;;5.85;1.70;;;;;;;-2.18;61.18;95109.63;5070810;28;20203;-75
2022/01/23 10:25:35;;;;;;;8.20;1.90;;;;;;;-2.34;61.10;95115.69;5070521;28;20464;-77
2022/01/23 10:28:05;;;;;;;2.05;1.38;;;;;;;-2.21;60.46;95107.47;5069481;28;20234;-76
2022/01/23 10:30:37;;;;;;;6.63;2.20;;;;;;;-2.23;60.08;95109.53;5070424;28;20209;-76
2022/01/23 10:33:10;;;;;;;3.47;2.17;;;;;;;-2.01;60.15;95098.25;5070749;28;20223;-76
2022/01/23 10:36:00;;;;;;;3.90;1.88;;;;;;;-2.18;60.45;95091.06;5070692;28;20222;-77
2022/01/23 10:38:29;;;;;;;4.68;2.13;;;;;;;-2.01;59.64;95085.78;5059997;28;20230;-76
2022/01/23 10:41:13;;;;;;;2.90;1.38;;;;;;;-2.17;60.34;95090.00;5070382;28;20662;-76
2022/01/23 10:47:03;;;;;;;7.60;2.88;;;;;;;-2.02;61.20;95094.78;5069749;28;20241;-77
2022/01/23 10:49:47;;;;;;;4.28;2.50;;;;;;;-1.83;59.11;95074.16;5069903;28;20234;-78
2022/01/23 10:52:26;;;;;;;5.45;3.15;;;;;;;-1.98;59.59;95073.91;5070222;28;20709;-78
2022/01/23 10:54:53;;;;;;;3.53;1.80;;;;;;;-1.84;59.19;95077.88;5070118;28;20223;-78
2022/01/23 10:57:21;;;;;;;4.00;1.70;;;;;;;-1.80;57.60;95079.00;5087854;28;20210;-78
2022/01/23 10:59:50;;;;;;;5.20;2.80;;;;;;;-1.79;59.16;95075.31;5064315;28;20235;-78
2022/01/23 11:02:21;;;;;;;3.72;1.60;;;;;;;-1.88;58.11;95074.06;5069528;28;20750;-76
2022/01/23 11:04:58;;;;;;;4.60;1.95;;;;;;;-1.73;58.03;95063.72;5070650;28;20195;-75
2022/01/23 11:07:26;;;;;;;5.32;1.98;;;;;;;-2.16;58.28;95070.41;5067349;28;20238;-76
2022/01/23 11:09:58;;;;;;;2.20;1.70;;;;;;;-1.97;57.75;95073.66;5067797;28;20227;-74
2022/01/23 11:12:46;;;;;;;3.75;2.03;;;;;;;-2.04;58.33;95072.19;5069982;28;20234;-76
2022/01/23 11:18:00;;;;;;;5.22;2.05;;;;;;;-1.93;58.18;95055.41;5071052;28;20747;-75
2022/01/23 11:20:33;;;;;;;6.22;1.27;;;;;;;-1.77;57.41;95046.66;5073883;28;20223;-79
2022/01/23 11:23:11;;;;;;;2.28;1.35;;;;;;;-1.44;55.22;95057.28;5073454;28;20207;-76
2022/01/23 11:25:39;;;;;;;3.75;1.55;;;;;;;-1.26;56.17;95044.81;5073689;28;20297;-76
2022/01/23 11:28:07;;;;;;;2.90;1.77;;;;;;;-1.82;56.98;95039.44;5072895;28;20605;-75
2022/01/23 11:30:39;;;;;;;7.95;1.63;;;;;;;-1.83;57.75;95043.13;5073136;28;20735;-76
2022/01/23 11:33:08;;;;;;;3.88;1.95;;;;;;;-1.84;57.96;95036.19;5071874;28;20225;-78
2022/01/23 11:35:34;;;;;;;3.72;1.25;;;;;;;-2.00;58.28;95025.56;5073558;28;20577;-74
2022/01/23 11:38:04;;;;;;;3.03;1.85;;;;;;;-1.89;57.81;95016.72;5073495;28;20207;-81
2022/01/23 11:40:40;;;;;;;5.70;1.73;;;;;;;-1.65;57.48;95023.50;5073758;28;20289;-84
2022/01/23 11:54:08;;;;;;;3.30;1.70;;;;;;;-1.89;57.86;95008.75;5059013;28;20232;-79
2022/01/23 11:56:57;;;;;;;5.80;1.63;;;;;;;-2.00;57.08;95005.13;5093348;28;20206;-80
2022/01/23 11:59:32;;;;;;;2.78;1.52;;;;;;;-2.00;57.68;95005.13;5075097;28;20303;-82
2022/01/23 12:02:28;;;;;;;2.60;1.92;;;;;;;-1.78;57.71;94996.47;5068932;28;20194;-77
2022/01/23 12:05:31;;;;;;;2.55;1.77;;;;;;;-1.94;58.09;94992.75;5072729;28;20203;-76
2022/01/23 12:17:45;;;;;;;3.40;2.05;;;;;;;-2.39;58.29;95012.13;5073909;28;20604;-76
2022/01/23 12:20:12;;;;;;;3.65;2.25;;;;;;;-2.58;59.89;95000.09;5074844;28;20231;-77
2022/01/23 12:22:57;;;;;;;4.00;1.92;;;;;;;-2.41;58.16;95011.56;5074005;28;20297;-75
2022/01/23 12:25:30;;;;;;;5.03;1.92;;;;;;;-2.51;58.85;95008.72;5073232;28;20210;-76
2022/01/23 12:28:28;;;;;;;3.92;2.33;;;;;;;-2.68;59.13;95010.53;5073556;28;20241;-77
2022/01/23 12:31:00;;;;;;;3.05;1.58;;;;;;;-2.62;59.79;95012.25;5059209;28;20646;-75
2022/01/23 12:33:45;;;;;;;2.15;1.40;;;;;;;-2.41;60.29;95013.41;5071604;28;20226;-74
2022/01/23 12:36:25;;;;;;;4.57;2.35;;;;;;;-2.43;59.79;95008.34;5071399;28;20219;-79
2022/01/23 12:38:56;;;;;;;3.53;2.28;;;;;;;-2.55;60.11;95002.28;5073596;28;20210;-80
2022/01/23 12:41:32;;;;;;;7.20;1.98;;;;;;;-2.58;60.05;95010.72;5059022;28;20245;-78
2022/01/23 12:44:02;;;;;;;3.42;2.33;;;;;;;-2.62;60.00;94996.34;5073216;28;20186;-77
2022/01/23 12:46:38;;;;;;;7.32;2.58;;;;;;;-2.97;61.24;95004.38;5091674;28;20202;-78
2022/01/23 12:49:26;;;;;;;5.10;2.08;;;;;;;-2.70;61.31;95007.28;5092372;28;20221;-77
2022/01/23 12:51:56;;;;;;;3.45;2.55;;;;;;;-2.70;61.53;95012.59;5076036;28;20230;-79
2022/01/23 12:54:26;;;;;;;2.85;1.77;;;;;;;-2.42;62.01;95012.59;5058659;28;20231;-77
2022/01/23 12:56:53;;;;;;;2.95;1.70;;;;;;;-2.44;59.89;95020.00;5070601;28;20227;-78
2022/01/23 12:59:27;;;;;;;6.18;2.08;;;;;;;-2.59;61.92;95011.75;5071642;28;20203;-75
2022/01/23 13:02:08;;;;;;;2.88;1.65;;;;;;;-2.82;61.72;95012.63;5072189;28;20213;-77
2022/01/23 13:04:41;;;;;;;3.22;1.67;;;;;;;-2.63;61.33;95015.94;5080938;28;20209;-75
2022/01/23 13:07:30;;;;;;;4.97;2.55;;;;;;;-2.60;62.09;95010.16;5090941;28;20226;-76
2022/01/23 13:10:08;;;;;;;5.18;2.25;;;;;;;-2.74;61.63;95030.03;5075008;28;20301;-78
2022/01/23 13:12:50;;;;;;;4.07;2.38;;;;;;;-2.75;63.18;95028.41;5072284;28;20505;-75
2022/01/23 13:15:43;;;;;;;2.85;2.10;;;;;;;-2.71;61.53;95029.53;5071110;28;20306;-76
2022/01/23 13:18:33;;;;;;;3.42;1.85;;;;;;;-2.71;62.70;95034.84;5071476;28;20317;-77
2022/01/23 13:27:05;;;;;;;2.97;1.90;;;;;;;-2.54;61.85;95025.13;5059815;28;20230;-78
2022/01/23 13:29:57;;;;;;;1.50;1.30;;;;;;;-2.35;61.42;95029.19;5071512;28;20712;-77
2022/01/23 13:32:31;;;;;;;3.05;1.70;;;;;;;-2.63;61.46;95032.66;5071189;28;20222;-72
2022/01/23 13:35:06;;;;;;;1.75;1.58;;;;;;;-2.72;61.64;95038.53;5084218;28;20202;-73
2022/01/23 13:37:36;;;;;;;2.97;1.88;;;;;;;-2.80;61.48;95028.31;5074077;28;20187;-74
2022/01/23 13:40:08;;;;;;;3.35;1.85;;;;;;;-2.80;62.39;95030.97;5091888;28;20671;-79
2022/01/23 13:59:39;;;;;;;2.22;1.73;;;;;;;-2.93;62.89;95038.13;5055245;28;20205;-77
2022/01/23 14:02:15;;;;;;;3.75;2.00;;;;;;;-2.98;63.39;95051.25;5071468;28;20226;-76
2022/01/23 14:04:44;;;;;;;3.90;2.05;;;;;;;-3.05;63.06;95040.00;5070822;28;20201;-76
2022/01/23 14:07:16;;;;;;;1.90;1.52;;;;;;;-3.13;64.09;95042.97;5070605;28;20222;-77
2022/01/23 14:09:45;;;;;;;4.95;1.90;;;;;;;-2.96;64.63;95043.88;5071253;28;20234;-77
2022/01/23 14:12:14;;;;;;;3.90;1.83;;;;;;;-3.06;63.21;95041.03;5070948;28;20306;-78
2022/01/23 14:14:54;;;;;;;2.25;1.70;;;;;;;-3.13;63.67;95040.34;5070470;28;20223;-77
2022/01/23 14:17:22;;;;;;;4.28;1.80;;;;;;;-2.94;63.95;95048.97;5069927;28;20701;-78
2022/01/23 14:20:00;;;;;;;2.55;1.45;;;;;;;-3.09;64.46;95049.44;5071213;28;20744;-77
2022/01/23 14:22:31;;;;;;;3.78;1.63;;;;;;;-3.02;63.65;95044.03;5070429;28;20222;-77
2022/01/23 14:25:13;;;;;;;2.97;1.63;;;;;;;-3.13;63.96;95037.69;5076866;28;20226;-80
2022/01/23 14:27:43;;;;;;;3.33;2.13;;;;;;;-3.21;64.72;95056.59;5075876;28;20194;-77
2022/01/23 14:30:13;;;;;;;2.58;2.08;;;;;;;-3.08;65.64;95061.66;5078938;28;20313;-77
2022/01/23 14:32:44;;;;;;;3.60;2.13;;;;;;;-3.15;64.98;95060.97;5074361;28;20187;-77
2022/01/23 14:35:14;;;;;;;1.98;1.40;;;;;;;-3.17;65.62;95065.69;5066808;28;20191;-75
2022/01/23 14:37:44;;;;;;;3.83;2.17;;;;;;;-3.23;64.61;95063.97;5068619;28;20195;-76
2022/01/23 14:40:18;;;;;;;3.72;1.33;;;;;;;-3.22;65.55;95057.63;5069741;28;20215;-76
2022/01/23 14:43:02;;;;;;;6.65;2.42;;;;;;;-3.28;65.09;95063.88;5062455;28;20213;-75
2022/01/23 14:45:31;;;;;;;6.50;2.80;;;;;;;-3.28;65.19;95066.50;5066888;28;20245;-75